createdAt,value
2022-12-15T00:00:15.732Z,86.64
2022-12-15T00:03:00.830Z,87.34
2022-12-15T00:05:49.929Z,87.93
2022-12-15T00:08:35.797Z,87.48
2022-12-15T00:11:21.809Z,87.00
2022-12-15T00:14:07.257Z,87.96
2022-12-15T00:16:52.613Z,87.54
2022-12-15T00:19:38.136Z,86.85
2022-12-15T00:22:24.853Z,87.00
2022-12-15T00:25:10.030Z,86.57
2022-12-15T00:28:01.567Z,86.64
2022-12-15T00:30:49.850Z,87.61
2022-12-15T00:33:35.990Z,87.68
2022-12-15T00:36:21.458Z,87.55
2022-12-15T00:38:48.240Z,86.71
2022-12-15T00:41:17.816Z,86.69
2022-12-15T00:43:45.180Z,86.63
2022-12-15T00:46:30.544Z,85.35
2022-12-15T00:48:57.635Z,85.80
2022-12-15T00:51:43.619Z,86.90
2022-12-15T00:54:29.319Z,85.92
2022-12-15T00:57:14.569Z,87.05
2022-12-15T00:59:59.717Z,86.04
2022-12-15T01:02:44.989Z,85.47
2022-12-15T01:05:30.266Z,85.56
2022-12-15T01:08:18.023Z,85.97
2022-12-15T01:11:03.196Z,85.51
2022-12-15T01:13:49.706Z,84.88
2022-12-15T01:16:35.291Z,85.84
2022-12-15T01:19:20.615Z,86.43
2022-12-15T01:21:47.203Z,86.38
2022-12-15T01:24:13.802Z,86.76
2022-12-15T01:26:40.382Z,86.61
2022-12-15T01:29:06.968Z,86.80
2022-12-15T01:31:33.556Z,87.33
2022-12-15T01:34:00.126Z,87.18
2022-12-15T01:36:26.697Z,86.44
2022-12-15T01:38:54.517Z,86.53
2022-12-15T01:41:21.629Z,87.02
2022-12-15T01:43:49.936Z,87.23
2022-12-15T01:46:19.984Z,86.72
2022-12-15T01:48:52.227Z,87.39
2022-12-15T01:51:25.433Z,86.56
2022-12-15T01:54:05.087Z,86.59
2022-12-15T01:56:38.260Z,87.05
2022-12-15T01:59:09.325Z,86.90
2022-12-15T02:01:36.035Z,86.41
2022-12-15T02:04:03.243Z,86.90
2022-12-15T02:06:29.939Z,86.88
2022-12-15T02:08:59.012Z,86.77
2022-12-15T02:11:40.863Z,86.98
2022-12-15T02:14:10.306Z,86.42
2022-12-15T02:16:39.591Z,86.52
2022-12-15T02:19:18.065Z,87.61
2022-12-15T02:22:06.734Z,87.86
2022-12-15T02:25:08.918Z,87.21
2022-12-15T02:27:47.821Z,88.87
2022-12-15T02:30:20.298Z,89.84
2022-12-15T02:33:23.840Z,90.86
2022-12-15T02:36:00.429Z,90.82
2022-12-15T02:38:31.397Z,90.86
2022-12-15T02:40:59.838Z,90.62
2022-12-15T02:43:29.289Z,90.46
2022-12-15T02:46:20.593Z,91.01
2022-12-15T02:48:59.180Z,91.20
2022-12-15T02:51:45.976Z,90.89
2022-12-15T02:54:30.467Z,90.13
2022-12-15T02:57:31.852Z,89.68
2022-12-15T03:00:02.431Z,89.50
2022-12-15T03:02:32.408Z,90.97
2022-12-15T03:04:59.183Z,91.64
2022-12-15T03:07:27.919Z,90.88
2022-12-15T03:09:57.531Z,90.43
2022-12-15T03:12:24.375Z,91.94
2022-12-15T03:14:51.040Z,90.82
2022-12-15T03:17:17.645Z,90.55
2022-12-15T03:19:44.216Z,90.92
2022-12-15T03:22:10.849Z,90.91
2022-12-15T03:24:37.419Z,91.02
2022-12-15T03:27:04.883Z,90.36
2022-12-15T03:29:31.430Z,90.83
2022-12-15T03:31:58.097Z,90.94
2022-12-15T03:34:24.708Z,91.18
2022-12-15T03:36:51.331Z,90.48
2022-12-15T03:39:17.888Z,89.89
2022-12-15T03:41:44.498Z,90.34
2022-12-15T03:44:11.246Z,89.72
2022-12-15T03:46:37.783Z,89.45
2022-12-15T03:49:04.511Z,89.99
2022-12-15T03:51:31.315Z,89.85
2022-12-15T03:53:58.914Z,90.07
2022-12-15T03:56:25.815Z,90.18
2022-12-15T03:58:52.354Z,90.62
2022-12-15T04:01:31.013Z,91.25
2022-12-15T04:04:00.912Z,91.37
2022-12-15T04:06:29.276Z,91.00
2022-12-15T04:08:55.932Z,91.81
2022-12-15T04:11:22.591Z,91.83
2022-12-15T04:13:49.142Z,91.82
2022-12-15T04:16:19.746Z,91.30
2022-12-15T04:18:46.571Z,91.18
2022-12-15T04:21:13.154Z,91.18
2022-12-15T04:23:39.645Z,90.88
2022-12-15T04:26:24.820Z,90.56
2022-12-15T04:29:10.078Z,90.44
2022-12-15T04:31:55.319Z,90.44
2022-12-15T04:34:42.534Z,90.66
2022-12-15T04:37:32.674Z,91.12
2022-12-15T04:40:18.545Z,90.81
2022-12-15T04:43:05.996Z,90.45
2022-12-15T04:45:51.668Z,90.03
2022-12-15T04:48:36.926Z,90.75
2022-12-15T04:51:23.873Z,90.85
2022-12-15T04:54:09.371Z,91.04
2022-12-15T04:56:54.162Z,90.79
2022-12-15T04:59:39.257Z,90.46
2022-12-15T05:02:24.314Z,89.70
2022-12-15T05:05:09.482Z,89.91
2022-12-15T05:07:55.389Z,89.66
2022-12-15T05:10:40.550Z,89.76
2022-12-15T05:13:27.002Z,89.66
2022-12-15T05:16:12.416Z,88.95
2022-12-15T05:18:58.091Z,88.79
2022-12-15T05:21:43.109Z,88.72
2022-12-15T05:24:27.953Z,89.86
2022-12-15T05:27:12.812Z,89.32
2022-12-15T05:29:57.752Z,88.72
2022-12-15T05:32:24.242Z,88.91
2022-12-15T05:35:15.783Z,89.18
2022-12-15T05:37:42.301Z,88.27
2022-12-15T05:40:09.511Z,88.84
2022-12-15T05:42:36.032Z,88.12
2022-12-15T05:45:02.779Z,88.63
2022-12-15T05:47:29.292Z,89.52
2022-12-15T05:49:55.821Z,89.40
2022-12-15T05:52:22.515Z,89.60
2022-12-15T05:54:49.079Z,89.81
2022-12-15T05:57:15.574Z,89.59
2022-12-15T05:59:42.490Z,88.98
2022-12-15T06:02:09.098Z,89.24
2022-12-15T06:04:35.988Z,88.55
2022-12-15T06:07:02.640Z,88.72
2022-12-15T06:09:29.163Z,88.74
2022-12-15T06:12:20.417Z,89.37
2022-12-15T06:14:46.935Z,89.92
2022-12-15T06:17:16.397Z,90.45
2022-12-15T06:19:42.944Z,90.79
2022-12-15T06:22:09.462Z,91.26
2022-12-15T06:24:36.079Z,91.53
2022-12-15T06:27:02.635Z,91.07
2022-12-15T06:29:29.201Z,90.53
2022-12-15T06:31:55.794Z,90.39
2022-12-15T06:34:22.665Z,90.09
2022-12-15T06:36:49.223Z,90.67
2022-12-15T06:39:16.627Z,90.46
2022-12-15T06:41:43.501Z,91.05
2022-12-15T06:44:13.991Z,90.93
2022-12-15T06:46:40.604Z,90.71
2022-12-15T06:49:07.832Z,90.43
2022-12-15T06:51:34.630Z,90.96
2022-12-15T06:54:01.717Z,90.55
2022-12-15T06:56:38.850Z,90.74
2022-12-15T06:59:07.426Z,90.24
2022-12-15T07:01:34.733Z,89.69
2022-12-15T07:04:02.907Z,90.28
2022-12-15T07:06:36.456Z,90.93
2022-12-15T07:09:04.904Z,90.75
2022-12-15T07:11:31.797Z,90.45
2022-12-15T07:13:58.404Z,91.64
2022-12-15T07:16:25.321Z,90.39
2022-12-15T07:18:52.257Z,90.74
2022-12-15T07:21:19.523Z,90.65
2022-12-15T07:23:54.879Z,89.72
2022-12-15T07:26:22.829Z,91.24
2022-12-15T07:28:49.382Z,91.46
2022-12-15T07:31:16.018Z,90.47
2022-12-15T07:33:42.994Z,90.79
2022-12-15T07:36:09.713Z,90.49
2022-12-15T07:38:36.615Z,90.00
2022-12-15T07:41:05.708Z,89.80
2022-12-15T07:43:32.841Z,90.73
2022-12-15T07:46:00.050Z,91.84
2022-12-15T07:48:27.351Z,91.07
2022-12-15T07:51:01.413Z,90.87
2022-12-15T07:53:34.294Z,90.99
2022-12-15T07:56:10.165Z,91.97
2022-12-15T07:58:38.300Z,92.37
2022-12-15T08:01:12.250Z,91.97
2022-12-15T08:03:40.241Z,91.78
2022-12-15T08:06:12.409Z,92.72
2022-12-15T08:08:40.439Z,91.62
2022-12-15T08:11:13.389Z,92.41
2022-12-15T08:16:29.156Z,91.20
2022-12-15T08:18:57.166Z,90.75
2022-12-15T08:21:27.736Z,91.56
2022-12-15T08:23:54.256Z,91.60
2022-12-15T08:26:25.226Z,92.53
2022-12-15T08:28:54.854Z,93.22
2022-12-15T08:31:23.834Z,92.38
2022-12-15T08:33:50.985Z,92.48
2022-12-15T08:36:19.337Z,92.20
2022-12-15T08:38:47.401Z,91.81
2022-12-15T08:41:23.595Z,92.05
2022-12-15T08:43:51.453Z,93.35
2022-12-15T08:46:21.035Z,92.40
2022-12-15T08:48:48.205Z,92.45
2022-12-15T08:51:15.438Z,93.23
2022-12-15T08:53:42.938Z,93.04
2022-12-15T08:56:15.790Z,94.09
2022-12-15T08:58:42.494Z,94.39
2022-12-15T09:01:17.312Z,93.89
2022-12-15T09:03:47.348Z,93.37
2022-12-15T09:06:17.167Z,92.43
2022-12-15T09:08:44.109Z,91.82
2022-12-15T09:11:16.017Z,92.17
2022-12-15T09:13:42.684Z,91.67
2022-12-15T09:16:16.042Z,93.48
2022-12-15T09:18:45.765Z,93.13
2022-12-15T09:21:12.361Z,92.46
2022-12-15T09:23:39.249Z,92.67
2022-12-15T09:26:14.322Z,90.98
2022-12-15T09:28:42.950Z,91.70
2022-12-15T09:31:14.719Z,91.12
2022-12-15T09:33:44.004Z,92.54
2022-12-15T09:36:13.127Z,92.27
2022-12-15T09:38:41.779Z,91.79
2022-12-15T09:41:14.948Z,91.72
2022-12-15T09:43:54.530Z,91.13
2022-12-15T09:46:30.702Z,91.72
2022-12-15T09:49:01.348Z,91.93
2022-12-15T09:51:43.082Z,91.07
2022-12-15T09:54:11.234Z,90.89
2022-12-15T09:56:44.449Z,90.79
2022-12-15T09:59:51.804Z,90.96
2022-12-15T10:02:35.810Z,91.92
2022-12-15T10:05:16.225Z,90.46
2022-12-15T10:10:34.849Z,88.66
2022-12-15T10:13:09.619Z,89.27
2022-12-15T10:15:50.460Z,89.00
2022-12-15T10:18:35.262Z,88.38
2022-12-15T10:21:02.334Z,87.92
2022-12-15T10:23:29.560Z,88.43
2022-12-15T10:26:17.956Z,88.56
2022-12-15T10:29:06.445Z,87.47
2022-12-15T10:31:52.320Z,86.43
2022-12-15T10:34:32.301Z,87.12
2022-12-15T10:36:59.200Z,87.11
2022-12-15T10:39:38.411Z,87.50
2022-12-15T10:42:24.865Z,87.79
2022-12-15T10:44:56.965Z,86.41
2022-12-15T10:47:26.211Z,86.65
2022-12-15T10:49:54.489Z,86.72
2022-12-15T10:52:27.393Z,85.38
2022-12-15T10:54:59.761Z,84.87
2022-12-15T10:57:31.392Z,85.95
2022-12-15T11:00:13.382Z,85.32
2022-12-15T11:02:42.223Z,85.30
2022-12-15T11:05:15.806Z,85.56
2022-12-15T11:07:42.405Z,85.30
2022-12-15T11:10:48.996Z,82.27
2022-12-15T11:13:19.843Z,84.44
2022-12-15T11:15:50.763Z,82.38
2022-12-15T11:18:42.214Z,82.10
2022-12-15T11:21:19.363Z,82.62
2022-12-15T11:24:07.040Z,81.24
2022-12-15T11:26:42.515Z,80.23
2022-12-15T11:29:50.233Z,78.13
2022-12-15T11:32:23.371Z,78.93
2022-12-15T11:34:50.054Z,79.22
2022-12-15T11:37:36.216Z,77.26
2022-12-15T11:40:27.901Z,77.51
2022-12-15T11:43:19.380Z,76.78
2022-12-15T11:46:01.030Z,75.82
2022-12-15T11:49:04.444Z,76.90
2022-12-15T11:51:43.584Z,78.07
2022-12-15T11:54:10.175Z,72.33
2022-12-15T11:56:45.447Z,73.86
2022-12-15T11:59:34.741Z,76.00
2022-12-15T12:02:26.316Z,72.63
2022-12-15T12:05:03.102Z,73.76
2022-12-15T12:07:44.837Z,71.18
2022-12-15T12:10:30.401Z,73.23
2022-12-15T12:13:26.757Z,73.33
2022-12-15T12:16:24.694Z,69.92
2022-12-15T12:19:06.101Z,73.39
2022-12-15T12:21:44.102Z,70.44
2022-12-15T12:24:26.341Z,72.95
2022-12-15T12:27:02.440Z,71.22
2022-12-15T12:29:38.355Z,72.80
2022-12-15T12:32:18.178Z,71.87
2022-12-15T12:35:32.811Z,70.95
2022-12-15T12:38:03.925Z,70.46
2022-12-15T12:41:02.893Z,70.18
2022-12-15T12:43:40.695Z,71.87
2022-12-15T12:46:34.006Z,68.95
2022-12-15T12:49:26.072Z,68.97
2022-12-15T12:51:56.486Z,69.98
2022-12-15T12:54:35.256Z,69.71
2022-12-15T12:57:22.657Z,71.01
2022-12-15T13:00:01.950Z,70.95
2022-12-15T13:02:29.395Z,69.93
2022-12-15T13:05:06.449Z,68.16
2022-12-15T13:07:36.313Z,68.41
2022-12-15T13:10:17.626Z,69.03
2022-12-15T13:12:55.659Z,69.66
2022-12-15T13:15:31.094Z,71.42
2022-12-15T13:18:12.413Z,70.86
2022-12-15T13:20:40.465Z,70.21
2022-12-15T13:23:22.026Z,69.85
2022-12-15T13:26:00.549Z,70.15
2022-12-15T13:28:36.259Z,70.16
2022-12-15T13:31:18.505Z,68.85
2022-12-15T13:33:51.537Z,70.11
2022-12-15T13:36:36.654Z,71.25
2022-12-15T13:39:15.196Z,70.96
2022-12-15T13:42:07.520Z,70.63
2022-12-15T13:44:40.528Z,71.31
2022-12-15T13:47:20.080Z,70.31
2022-12-15T13:49:57.377Z,70.47
2022-12-15T13:55:39.872Z,71.69
2022-12-15T13:58:09.269Z,71.48
2022-12-15T14:00:39.448Z,71.32
2022-12-15T14:03:10.310Z,71.52
2022-12-15T14:05:39.012Z,71.55
2022-12-15T14:08:34.878Z,71.74
2022-12-15T14:14:09.425Z,72.78
2022-12-15T14:17:22.282Z,72.61
2022-12-15T14:20:12.085Z,73.86
2022-12-15T14:22:42.514Z,74.07
2022-12-15T14:25:16.592Z,73.56
2022-12-15T14:27:43.141Z,73.39
2022-12-15T14:34:36.012Z,74.54
2022-12-15T14:37:29.632Z,74.12
2022-12-15T14:40:02.298Z,74.64
2022-12-15T14:42:37.940Z,75.62
2022-12-15T14:45:32.447Z,74.97
2022-12-15T14:48:40.664Z,74.06
2022-12-15T14:51:14.977Z,73.60
2022-12-15T14:53:49.577Z,72.98
2022-12-15T14:56:25.769Z,72.86
2022-12-15T14:59:30.788Z,72.00
2022-12-15T15:02:23.003Z,72.23
2022-12-15T15:05:05.468Z,72.02
2022-12-15T15:07:40.018Z,72.72
2022-12-15T15:11:00.636Z,71.58
2022-12-15T15:13:44.181Z,72.11
2022-12-15T15:16:18.477Z,71.78
2022-12-15T15:18:55.838Z,72.01
2022-12-15T15:21:26.119Z,72.11
2022-12-15T15:24:01.727Z,72.96
2022-12-15T15:26:31.711Z,72.90
2022-12-15T15:28:59.243Z,72.99
2022-12-15T15:31:41.862Z,73.06
2022-12-15T15:34:16.444Z,73.47
2022-12-15T15:36:48.751Z,74.05
2022-12-15T15:39:22.324Z,74.93
2022-12-15T15:41:54.664Z,75.31
2022-12-15T15:44:30.213Z,75.35
2022-12-15T15:47:02.150Z,75.15
2022-12-15T15:49:58.851Z,75.35
2022-12-15T15:52:36.808Z,75.67
2022-12-15T15:55:12.903Z,75.40
2022-12-15T15:57:41.917Z,74.99
2022-12-15T16:00:24.893Z,75.40
2022-12-15T16:02:59.179Z,75.80
2022-12-15T16:05:34.253Z,75.83
2022-12-15T16:08:21.427Z,76.11
2022-12-15T16:14:03.492Z,76.57
2022-12-15T16:17:05.842Z,77.03
2022-12-15T16:19:39.441Z,77.19
2022-12-15T16:22:14.024Z,77.57
2022-12-15T16:24:47.393Z,77.89
2022-12-15T16:27:18.676Z,77.55
2022-12-15T16:30:10.109Z,77.76
2022-12-15T16:36:03.599Z,78.00
2022-12-15T16:38:39.237Z,77.90
2022-12-15T16:41:14.306Z,78.70
2022-12-15T16:43:48.201Z,78.86
2022-12-15T16:46:23.318Z,79.88
2022-12-15T16:48:51.730Z,80.09
2022-12-15T16:52:06.823Z,79.53
2022-12-15T16:54:33.504Z,79.96
2022-12-15T16:57:00.290Z,79.75
2022-12-15T16:59:36.812Z,79.90
2022-12-15T17:02:28.396Z,79.97
2022-12-15T17:04:58.282Z,81.00
2022-12-15T17:07:27.528Z,81.08
2022-12-15T17:09:54.214Z,81.24
2022-12-15T17:12:20.779Z,81.05
2022-12-15T17:14:47.557Z,81.16
2022-12-15T17:17:15.814Z,81.86
2022-12-15T17:19:57.804Z,81.10
2022-12-15T17:22:30.327Z,82.15
2022-12-15T17:24:58.428Z,82.18
2022-12-15T17:27:34.651Z,82.06
2022-12-15T17:30:04.371Z,81.63
2022-12-15T17:32:35.184Z,81.87
2022-12-15T17:35:07.581Z,81.84
2022-12-15T17:37:43.253Z,81.99
2022-12-15T17:40:26.796Z,81.39
2022-12-15T17:43:13.617Z,82.11
2022-12-15T17:45:50.935Z,82.33
2022-12-15T17:48:21.655Z,82.54
2022-12-15T17:50:52.898Z,82.76
2022-12-15T17:53:30.372Z,82.70
2022-12-15T17:56:00.080Z,82.64
2022-12-15T17:58:27.133Z,83.15
2022-12-15T18:00:56.649Z,83.88
2022-12-15T18:03:24.262Z,83.46
2022-12-15T18:06:03.468Z,84.78
2022-12-15T18:08:34.651Z,84.88
2022-12-15T18:11:01.332Z,84.37
2022-12-15T18:13:35.800Z,84.27
2022-12-15T18:16:09.847Z,84.21
2022-12-15T18:18:39.789Z,84.66
2022-12-15T18:21:19.927Z,84.27
2022-12-15T18:23:56.425Z,83.90
2022-12-15T18:26:25.200Z,83.96
2022-12-15T18:28:52.255Z,84.42
2022-12-15T18:31:27.949Z,84.13
2022-12-15T18:34:00.926Z,84.01
2022-12-15T18:36:31.450Z,83.66
2022-12-15T18:39:09.472Z,84.04
2022-12-15T18:42:15.638Z,84.48
2022-12-15T18:44:49.907Z,83.92
2022-12-15T18:47:19.583Z,84.16
2022-12-15T18:49:49.965Z,85.12
2022-12-15T18:52:31.479Z,84.80
2022-12-15T18:55:27.072Z,84.87
2022-12-15T18:58:04.248Z,84.79
2022-12-15T19:00:38.927Z,84.67
2022-12-15T19:03:09.214Z,85.11
2022-12-15T19:05:41.635Z,84.45
2022-12-15T19:08:18.549Z,86.41
2022-12-15T19:10:56.264Z,86.80
2022-12-15T19:13:30.271Z,88.49
2022-12-15T19:15:58.719Z,89.32
2022-12-15T19:18:45.308Z,91.38
2022-12-15T19:21:39.929Z,91.93
2022-12-15T19:24:09.617Z,90.28
2022-12-15T19:26:36.232Z,89.23
2022-12-15T19:29:21.199Z,88.33
2022-12-15T19:31:48.418Z,87.98
2022-12-15T19:34:15.312Z,88.28
2022-12-15T19:36:42.099Z,88.50
2022-12-15T19:39:19.169Z,87.21
2022-12-15T19:41:45.798Z,87.29
2022-12-15T19:44:15.848Z,87.50
2022-12-15T19:46:43.479Z,87.41
2022-12-15T19:49:10.517Z,87.46
2022-12-15T19:51:37.592Z,86.78
2022-12-15T19:54:04.449Z,86.75
2022-12-15T19:56:31.086Z,87.40
2022-12-15T19:58:57.958Z,87.72
2022-12-15T20:01:30.639Z,87.07
2022-12-15T20:03:57.250Z,87.14
2022-12-15T20:06:26.791Z,87.29
2022-12-15T20:09:18.796Z,86.66
2022-12-15T20:11:45.943Z,86.21
2022-12-15T20:14:14.963Z,86.51
2022-12-15T20:16:41.633Z,86.27
2022-12-15T20:19:08.236Z,86.16
2022-12-15T20:21:37.545Z,86.41
2022-12-15T20:24:20.042Z,86.31
2022-12-15T20:26:47.022Z,86.23
2022-12-15T20:29:24.542Z,86.10
2022-12-15T20:31:55.868Z,86.55
2022-12-15T20:34:23.741Z,86.83
2022-12-15T20:37:26.779Z,86.11
2022-12-15T20:39:57.385Z,86.74
2022-12-15T20:42:24.739Z,87.01
2022-12-15T20:44:51.624Z,86.75
2022-12-15T20:47:26.066Z,87.07
2022-12-15T20:49:54.772Z,86.70
2022-12-15T20:52:26.868Z,87.10
2022-12-15T20:54:54.614Z,86.11
2022-12-15T20:57:21.659Z,87.40
2022-12-15T20:59:48.631Z,87.31
2022-12-15T21:02:19.045Z,87.06
2022-12-15T21:04:46.407Z,86.78
2022-12-15T21:07:13.039Z,86.94
2022-12-15T21:09:40.018Z,86.96
2022-12-15T21:12:32.757Z,86.69
2022-12-15T21:14:59.305Z,86.45
2022-12-15T21:17:26.352Z,87.41
2022-12-15T21:19:52.890Z,87.78
2022-12-15T21:22:27.102Z,87.43
2022-12-15T21:24:56.214Z,87.07
2022-12-15T21:27:23.027Z,86.79
2022-12-15T21:29:52.595Z,87.27
2022-12-15T21:32:20.800Z,87.86
2022-12-15T21:34:47.334Z,87.97
2022-12-15T21:37:27.060Z,87.59
2022-12-15T21:39:54.214Z,87.26
2022-12-15T21:42:21.127Z,87.16
2022-12-15T21:44:47.901Z,86.96
2022-12-15T21:47:26.110Z,86.27
2022-12-15T21:49:52.675Z,86.03
2022-12-15T21:52:20.152Z,86.19
2022-12-15T21:54:46.678Z,86.96
2022-12-15T21:57:13.289Z,87.47
2022-12-15T21:59:40.099Z,87.70
2022-12-15T22:02:36.284Z,86.93
2022-12-15T22:05:03.076Z,86.80
2022-12-15T22:07:29.606Z,87.22
2022-12-15T22:09:56.172Z,87.47
2022-12-15T22:12:24.318Z,87.59
2022-12-15T22:14:51.968Z,86.71
2022-12-15T22:17:21.537Z,86.95
2022-12-15T22:19:48.200Z,86.12
2022-12-15T22:22:15.517Z,86.42
2022-12-15T22:24:42.749Z,85.67
2022-12-15T22:27:20.939Z,86.23
2022-12-15T22:29:49.009Z,87.70
2022-12-15T22:32:16.847Z,87.82
2022-12-15T22:34:43.465Z,87.89
2022-12-15T22:37:10.326Z,86.78
2022-12-15T22:39:37.414Z,86.24
2022-12-15T22:42:05.091Z,87.44
2022-12-15T22:44:35.803Z,87.84
2022-12-15T22:47:04.008Z,87.51
2022-12-15T22:49:35.325Z,86.94
2022-12-15T22:52:02.115Z,86.45
2022-12-15T22:54:29.397Z,86.52
2022-12-15T22:57:01.016Z,87.31
2022-12-15T22:59:35.505Z,87.26
2022-12-15T23:02:03.082Z,86.50
2022-12-15T23:04:31.756Z,86.66
2022-12-15T23:07:00.006Z,86.54
2022-12-15T23:09:26.680Z,85.98
2022-12-15T23:11:53.408Z,86.71
2022-12-15T23:14:44.756Z,86.45
2022-12-15T23:17:12.756Z,86.21
2022-12-15T23:19:45.965Z,86.60
2022-12-15T23:22:13.703Z,86.23
2022-12-15T23:24:40.704Z,86.17
2022-12-15T23:27:11.541Z,86.52
2022-12-15T23:29:38.192Z,86.51
2022-12-15T23:32:04.951Z,86.48
2022-12-15T23:34:34.667Z,86.99
2022-12-15T23:37:01.204Z,86.63
2022-12-15T23:39:27.753Z,86.81
2022-12-15T23:41:54.235Z,86.97
2022-12-15T23:44:21.287Z,87.08
2022-12-15T23:46:47.861Z,87.23
2022-12-15T23:49:14.529Z,86.25
2022-12-15T23:51:41.013Z,85.91
2022-12-15T23:54:07.689Z,86.36
2022-12-15T23:56:34.752Z,86.80
2022-12-15T23:59:01.338Z,86.78
